createdAt,value
2023-01-15T00:00:10.621Z,0
2023-01-15T00:01:10.209Z,0
2023-01-15T00:02:10.776Z,0
2023-01-15T00:03:10.513Z,0
2023-01-15T00:04:10.861Z,0
2023-01-15T00:05:10.850Z,0
2023-01-15T00:06:10.472Z,0
2023-01-15T00:07:10.449Z,0
2023-01-15T00:08:10.490Z,0
2023-01-15T00:09:10.705Z,0
2023-01-15T00:10:10.413Z,0
2023-01-15T00:11:10.659Z,0
2023-01-15T00:12:10.655Z,0
2023-01-15T00:13:10.360Z,0
2023-01-15T00:14:10.617Z,0
2023-01-15T00:15:13.083Z,0
2023-01-15T00:16:12.048Z,0
2023-01-15T00:17:11.554Z,0
2023-01-15T00:18:11.027Z,0
2023-01-15T00:19:11.432Z,0
2023-01-15T00:20:11.275Z,0
2023-01-15T00:21:11.266Z,0
2023-01-15T00:22:10.974Z,0
2023-01-15T00:23:11.468Z,0
2023-01-15T00:24:11.464Z,0
2023-01-15T00:25:11.178Z,0
2023-01-15T00:26:11.156Z,0
2023-01-15T00:27:10.902Z,0
2023-01-15T00:28:10.640Z,0
2023-01-15T00:29:10.873Z,0
2023-01-15T00:30:11.454Z,0
2023-01-15T00:31:10.720Z,0
2023-01-15T00:32:11.104Z,0
2023-01-15T00:33:10.784Z,0
2023-01-15T00:34:11.298Z,0
2023-01-15T00:35:11.299Z,0
2023-01-15T00:36:11.448Z,0
2023-01-15T00:37:11.287Z,0
2023-01-15T00:38:10.982Z,0
2023-01-15T00:39:10.703Z,0
2023-01-15T00:40:11.224Z,0
2023-01-15T00:41:10.942Z,0
2023-01-15T00:42:10.965Z,0
2023-01-15T00:43:10.963Z,0
2023-01-15T00:44:10.943Z,0
2023-01-15T00:45:11.908Z,0
2023-01-15T00:46:10.816Z,0
2023-01-15T00:47:10.620Z,0
2023-01-15T00:48:11.143Z,0
2023-01-15T00:49:10.556Z,0
2023-01-15T00:50:10.566Z,0
2023-01-15T00:51:10.782Z,0
2023-01-15T00:52:10.513Z,0
2023-01-15T00:53:10.991Z,0
2023-01-15T00:54:10.993Z,0
2023-01-15T00:55:10.991Z,0
2023-01-15T00:56:10.710Z,0
2023-01-15T00:57:10.710Z,0
2023-01-15T00:58:10.657Z,0
2023-01-15T00:59:10.433Z,0
2023-01-15T01:00:10.651Z,0
2023-01-15T01:01:11.228Z,0
2023-01-15T01:02:10.694Z,0
2023-01-15T01:03:10.856Z,0
2023-01-15T01:04:10.886Z,0
2023-01-15T01:05:10.854Z,0
2023-01-15T01:06:10.574Z,0
2023-01-15T01:07:10.534Z,0
2023-01-15T01:08:10.529Z,0
2023-01-15T01:09:10.532Z,0
2023-01-15T01:10:10.476Z,0
2023-01-15T01:11:10.512Z,0
2023-01-15T01:12:10.478Z,0
2023-01-15T01:13:09.932Z,0
2023-01-15T01:14:10.711Z,0
2023-01-15T01:15:10.675Z,0
2023-01-15T01:16:10.755Z,0
2023-01-15T01:17:10.657Z,0
2023-01-15T01:18:10.127Z,0
2023-01-15T01:19:10.633Z,0
2023-01-15T01:20:10.357Z,0
2023-01-15T01:21:10.572Z,0
2023-01-15T01:22:10.332Z,0
2023-01-15T01:23:10.358Z,0
2023-01-15T01:24:10.578Z,0
2023-01-15T01:25:10.283Z,0
2023-01-15T01:26:09.721Z,0
2023-01-15T01:27:09.963Z,0
2023-01-15T01:28:10.235Z,0
2023-01-15T01:29:10.525Z,0
2023-01-15T01:30:10.216Z,0
2023-01-15T01:31:10.170Z,0
2023-01-15T01:32:10.424Z,0
2023-01-15T01:33:09.888Z,0
2023-01-15T01:34:42.191Z,0
2023-01-15T01:35:10.378Z,0
2023-01-15T01:36:10.403Z,0
2023-01-15T01:37:10.087Z,0
2023-01-15T01:38:10.327Z,0
2023-01-15T01:39:10.326Z,0
2023-01-15T01:40:10.064Z,0
2023-01-15T01:41:09.775Z,0
2023-01-15T01:42:09.992Z,0
2023-01-15T01:43:09.988Z,0
2023-01-15T01:44:09.971Z,0
2023-01-15T01:45:09.743Z,0
2023-01-15T01:46:10.311Z,0
2023-01-15T01:47:09.943Z,0
2023-01-15T01:48:10.191Z,0
2023-01-15T01:49:10.236Z,0
2023-01-15T01:50:10.167Z,0
2023-01-15T01:51:09.887Z,0
2023-01-15T01:52:09.867Z,0
2023-01-15T01:53:09.835Z,0
2023-01-15T01:54:09.569Z,0
2023-01-15T01:55:09.811Z,0
2023-01-15T01:56:09.807Z,0
2023-01-15T01:57:09.552Z,0
2023-01-15T01:58:10.037Z,0
2023-01-15T01:59:09.507Z,0
2023-01-15T02:00:09.798Z,0
2023-01-15T02:01:10.319Z,0
2023-01-15T02:02:10.430Z,0
2023-01-15T02:03:09.213Z,0
2023-01-15T02:04:09.697Z,0
2023-01-15T02:05:09.430Z,0
2023-01-15T02:06:09.638Z,0
2023-01-15T02:07:09.889Z,0
2023-01-15T02:08:09.886Z,0
2023-01-15T02:09:09.624Z,0
2023-01-15T02:10:09.921Z,0
2023-01-15T02:11:09.827Z,0
2023-01-15T02:12:09.874Z,0
2023-01-15T02:13:09.833Z,0
2023-01-15T02:14:09.800Z,0
2023-01-15T02:15:09.789Z,0
2023-01-15T02:16:09.770Z,0
2023-01-15T02:17:09.235Z,0
2023-01-15T02:18:09.471Z,0
2023-01-15T02:19:09.718Z,0
2023-01-15T02:20:09.449Z,0
2023-01-15T02:21:09.407Z,0
2023-01-15T02:22:09.682Z,0
2023-01-15T02:23:09.135Z,0
2023-01-15T02:24:10.423Z,0
2023-01-15T02:25:09.369Z,0
2023-01-15T02:26:09.080Z,0
2023-01-15T02:27:09.591Z,0
2023-01-15T02:28:09.335Z,0
2023-01-15T02:29:09.302Z,0
2023-01-15T02:30:09.355Z,0
2023-01-15T02:31:09.526Z,0
2023-01-15T02:32:09.283Z,0
2023-01-15T02:33:09.248Z,0
2023-01-15T02:34:09.041Z,0
2023-01-15T02:35:09.445Z,0
2023-01-15T02:36:09.452Z,0
2023-01-15T02:37:09.430Z,0
2023-01-15T02:38:09.178Z,0
2023-01-15T02:39:09.383Z,0
2023-01-15T02:40:09.379Z,0
2023-01-15T02:41:09.402Z,0
2023-01-15T02:42:09.139Z,0
2023-01-15T02:43:09.083Z,0
2023-01-15T02:44:09.331Z,0
2023-01-15T02:45:09.334Z,0
2023-01-15T02:46:09.152Z,0
2023-01-15T02:47:09.285Z,0
2023-01-15T02:48:09.008Z,0
2023-01-15T02:49:09.258Z,0
2023-01-15T02:50:08.996Z,0
2023-01-15T02:51:08.964Z,0
2023-01-15T02:52:09.224Z,0
2023-01-15T02:53:08.938Z,0
2023-01-15T02:54:09.191Z,0
2023-01-15T02:55:09.176Z,0
2023-01-15T02:56:09.679Z,0
2023-01-15T02:57:09.415Z,0
2023-01-15T02:58:09.386Z,0
2023-01-15T02:59:09.676Z,0
2023-01-15T03:00:09.627Z,0
2023-01-15T03:01:10.193Z,0
2023-01-15T03:02:10.447Z,0
2023-01-15T03:03:09.831Z,0
2023-01-15T03:04:09.563Z,0
2023-01-15T03:05:09.815Z,0
2023-01-15T03:06:09.775Z,0
2023-01-15T03:07:09.516Z,0
2023-01-15T03:08:09.770Z,0
2023-01-15T03:09:08.963Z,0
2023-01-15T03:10:09.742Z,0
2023-01-15T03:11:09.714Z,0
2023-01-15T03:12:09.462Z,0
2023-01-15T03:13:09.436Z,0
2023-01-15T03:14:09.395Z,0
2023-01-15T03:15:09.402Z,0
2023-01-15T03:16:09.742Z,0
2023-01-15T03:17:09.102Z,0
2023-01-15T03:18:09.608Z,0
2023-01-15T03:19:09.339Z,0
2023-01-15T03:20:09.583Z,0
2023-01-15T03:21:08.785Z,0
2023-01-15T03:22:09.294Z,0
2023-01-15T03:23:09.280Z,0
2023-01-15T03:24:09.522Z,0
2023-01-15T03:25:09.519Z,0
2023-01-15T03:26:09.239Z,0
2023-01-15T03:27:09.517Z,0
2023-01-15T03:28:09.484Z,0
2023-01-15T03:29:08.930Z,0
2023-01-15T03:30:09.471Z,0
2023-01-15T03:31:09.743Z,0
2023-01-15T03:32:09.427Z,0
2023-01-15T03:33:09.379Z,0
2023-01-15T03:50:01.572Z,0
2023-01-15T03:51:00.964Z,0
2023-01-15T03:52:01.186Z,0
2023-01-15T03:53:01.426Z,0
2023-01-15T03:54:01.308Z,0
2023-01-15T03:55:01.122Z,0
2023-01-15T03:56:01.168Z,0
2023-01-15T03:57:01.353Z,0
2023-01-15T03:58:01.372Z,0
2023-01-15T03:59:01.314Z,0
2023-01-15T04:00:01.080Z,0
2023-01-15T04:01:01.404Z,0
2023-01-15T04:02:01.684Z,0
2023-01-15T04:03:00.746Z,0
2023-01-15T04:04:01.434Z,0
2023-01-15T04:05:01.210Z,0
2023-01-15T04:06:01.251Z,0
2023-01-15T04:07:00.682Z,0
2023-01-15T04:08:00.918Z,0
2023-01-15T04:09:01.152Z,0
2023-01-15T04:10:00.637Z,0
2023-01-15T04:11:00.889Z,0
2023-01-15T04:12:01.127Z,0
2023-01-15T04:13:01.101Z,0
2023-01-15T04:14:00.900Z,0
2023-01-15T04:15:00.810Z,0
2023-01-15T04:16:00.594Z,0
2023-01-15T04:17:00.573Z,0
2023-01-15T04:18:00.788Z,0
2023-01-15T04:19:00.491Z,0
2023-01-15T04:20:00.758Z,0
2023-01-15T04:21:00.754Z,0
2023-01-15T04:22:00.735Z,0
2023-01-15T04:23:00.444Z,0
2023-01-15T04:24:01.040Z,0
2023-01-15T04:25:00.922Z,0
2023-01-15T04:26:00.647Z,0
2023-01-15T04:27:00.660Z,0
2023-01-15T04:28:00.346Z,0
2023-01-15T04:29:00.366Z,0
2023-01-15T04:30:00.919Z,0
2023-01-15T04:31:00.556Z,0
2023-01-15T04:32:00.307Z,0
2023-01-15T04:33:00.810Z,0
2023-01-15T04:34:00.812Z,0
2023-01-15T04:35:00.528Z,0
2023-01-15T04:36:00.278Z,0
2023-01-15T04:37:00.502Z,0
2023-01-15T04:38:00.491Z,0
2023-01-15T04:39:00.469Z,0
2023-01-15T04:40:00.485Z,0
2023-01-15T04:41:00.696Z,0
2023-01-15T04:42:00.662Z,0
2023-01-15T04:43:00.446Z,0
2023-01-15T04:44:00.375Z,0
2023-01-15T04:45:00.621Z,0
2023-01-15T04:46:00.867Z,0
2023-01-15T04:47:00.615Z,0
2023-01-15T04:48:00.333Z,0
2023-01-15T04:49:00.080Z,0
2023-01-15T04:50:00.048Z,0
2023-01-15T04:50:59.771Z,0
2023-01-15T04:52:00.270Z,0
2023-01-15T04:52:59.990Z,0
2023-01-15T04:53:59.973Z,0
2023-01-15T04:55:00.547Z,0
2023-01-15T04:56:00.468Z,0
2023-01-15T04:57:00.512Z,0
2023-01-15T04:58:00.198Z,0
2023-01-15T04:59:00.489Z,0
2023-01-15T05:00:00.490Z,0
2023-01-15T05:01:00.503Z,0
2023-01-15T05:02:12.528Z,0
2023-01-15T05:03:00.388Z,0
2023-01-15T05:04:00.117Z,0
2023-01-15T05:05:00.170Z,0
2023-01-15T05:05:59.817Z,0
2023-01-15T05:07:00.372Z,0
2023-01-15T05:08:00.280Z,0
2023-01-15T05:09:00.029Z,0
2023-01-15T05:10:00.263Z,0
2023-01-15T05:11:00.006Z,0
2023-01-15T05:11:59.979Z,0
2023-01-15T05:13:00.232Z,0
2023-01-15T05:13:59.951Z,0
2023-01-15T05:14:59.694Z,0
2023-01-15T05:15:59.930Z,0
2023-01-15T05:17:00.214Z,0
2023-01-15T05:17:59.903Z,0
2023-01-15T05:18:59.901Z,0
2023-01-15T05:20:00.160Z,0
2023-01-15T05:20:59.847Z,0
2023-01-15T05:22:00.102Z,0
2023-01-15T05:23:00.550Z,0
2023-01-15T05:24:00.227Z,0
2023-01-15T05:25:00.204Z,0
2023-01-15T05:25:59.682Z,0
2023-01-15T05:27:00.407Z,0
2023-01-15T05:28:00.482Z,0
2023-01-15T05:28:59.898Z,0
2023-01-15T05:30:00.160Z,0
2023-01-15T05:31:00.118Z,0
2023-01-15T05:32:00.374Z,0
2023-01-15T05:33:00.104Z,0
2023-01-15T05:34:00.335Z,0
2023-01-15T05:35:00.322Z,0
2023-01-15T05:35:59.790Z,0
2023-01-15T05:37:00.296Z,0
2023-01-15T05:38:00.016Z,0
2023-01-15T05:38:59.478Z,0
2023-01-15T05:39:59.989Z,0
2023-01-15T05:41:00.249Z,0
2023-01-15T05:41:59.989Z,0
2023-01-15T05:43:00.222Z,0
2023-01-15T05:43:59.932Z,0
2023-01-15T05:44:59.660Z,0
2023-01-15T05:46:00.287Z,0
2023-01-15T05:46:59.906Z,0
2023-01-15T05:47:59.639Z,0
2023-01-15T05:49:00.141Z,0
2023-01-15T05:49:59.869Z,0
2023-01-15T05:50:59.827Z,0
2023-01-15T05:52:00.130Z,0
2023-01-15T05:52:59.872Z,0
2023-01-15T05:53:59.567Z,0
2023-01-15T05:54:59.776Z,0
2023-01-15T05:55:59.775Z,0
2023-01-15T05:56:59.538Z,0
2023-01-15T05:58:00.000Z,0
2023-01-15T05:58:59.968Z,0
2023-01-15T05:59:59.443Z,0
2023-01-15T06:01:00.028Z,0
2023-01-15T06:02:00.123Z,0
2023-01-15T06:02:59.984Z,0
2023-01-15T06:03:59.646Z,0
2023-01-15T06:04:59.624Z,0
2023-01-15T06:05:59.892Z,0
2023-01-15T06:06:59.610Z,0
2023-01-15T06:08:01.262Z,0
2023-01-15T06:08:59.565Z,0
2023-01-15T06:09:59.354Z,0
2023-01-15T06:10:59.551Z,0
2023-01-15T06:11:59.827Z,0
2023-01-15T06:12:59.253Z,0
2023-01-15T06:13:59.240Z,0
2023-01-15T06:14:59.492Z,0
2023-01-15T06:15:59.770Z,0
2023-01-15T06:16:59.237Z,0
2023-01-15T06:17:59.710Z,0
2023-01-15T06:18:59.167Z,0
2023-01-15T06:19:59.691Z,0
2023-01-15T06:20:59.398Z,0
2023-01-15T06:21:59.397Z,0
2023-01-15T06:22:59.609Z,0
2023-01-15T06:23:59.365Z,0
2023-01-15T06:24:58.892Z,0
2023-01-15T06:25:59.583Z,0
2023-01-15T06:26:59.307Z,0
2023-01-15T06:27:59.056Z,0
2023-01-15T06:28:59.581Z,0
2023-01-15T06:29:59.536Z,0
2023-01-15T06:30:59.565Z,0
2023-01-15T06:31:59.239Z,0
2023-01-15T06:32:58.997Z,0
2023-01-15T06:33:59.201Z,0
2023-01-15T06:34:58.670Z,0
2023-01-15T06:35:58.915Z,0
2023-01-15T06:36:58.894Z,0
2023-01-15T06:37:59.430Z,0
2023-01-15T06:38:59.142Z,0
2023-01-15T06:39:59.373Z,0
2023-01-15T06:40:59.377Z,0
2023-01-15T06:41:59.466Z,0
2023-01-15T06:42:58.949Z,0
2023-01-15T06:43:59.418Z,0
2023-01-15T06:44:59.184Z,0
2023-01-15T06:45:59.444Z,0
2023-01-15T06:46:59.018Z,4
2023-01-15T06:47:59.374Z,4
2023-01-15T06:48:58.858Z,0
2023-01-15T06:49:59.420Z,4
2023-01-15T06:50:59.355Z,4
2023-01-15T06:51:59.056Z,4
2023-01-15T06:52:59.051Z,4
2023-01-15T06:53:58.756Z,8
2023-01-15T06:54:59.139Z,8
2023-01-15T06:55:59.249Z,12
2023-01-15T06:56:59.003Z,8
2023-01-15T06:57:58.695Z,8
2023-01-15T06:58:59.196Z,8
2023-01-15T06:59:58.955Z,8
2023-01-15T07:00:58.971Z,12
2023-01-15T07:01:59.170Z,16
2023-01-15T07:02:58.893Z,16
2023-01-15T07:03:58.915Z,16
2023-01-15T07:04:59.148Z,16
2023-01-15T07:05:58.734Z,20
2023-01-15T07:06:58.979Z,24
2023-01-15T07:07:58.956Z,32
2023-01-15T07:08:58.695Z,44
2023-01-15T07:09:58.739Z,44
2023-01-15T07:10:58.639Z,48
2023-01-15T07:11:59.158Z,44
2023-01-15T07:12:58.884Z,44
2023-01-15T07:13:58.856Z,44
2023-01-15T07:14:59.081Z,44
2023-01-15T07:15:59.177Z,40
2023-01-15T07:16:58.629Z,44
2023-01-15T07:17:58.797Z,40
2023-01-15T07:18:58.561Z,44
2023-01-15T07:19:58.753Z,52
2023-01-15T07:20:58.236Z,56
2023-01-15T07:21:58.771Z,48
2023-01-15T07:22:58.950Z,48
2023-01-15T07:23:58.437Z,68
2023-01-15T07:24:58.678Z,84
2023-01-15T07:25:58.904Z,80
2023-01-15T07:26:58.648Z,84
2023-01-15T07:27:58.880Z,92
2023-01-15T07:28:58.644Z,100
2023-01-15T07:29:58.866Z,116
2023-01-15T07:30:58.822Z,132
2023-01-15T07:31:58.316Z,116
2023-01-15T07:32:58.827Z,108
2023-01-15T07:33:58.787Z,108
2023-01-15T07:34:58.584Z,100
2023-01-15T07:35:58.496Z,104
2023-01-15T07:36:58.252Z,128
2023-01-15T07:37:58.727Z,148
2023-01-15T07:38:58.169Z,140
2023-01-15T07:39:58.698Z,132
2023-01-15T07:40:58.410Z,120
2023-01-15T07:41:58.686Z,144
2023-01-15T07:42:58.656Z,156
2023-01-15T07:43:58.624Z,172
2023-01-15T07:44:58.073Z,208
2023-01-15T07:45:58.280Z,248
2023-01-15T07:46:57.792Z,280
2023-01-15T07:47:58.607Z,288
2023-01-15T07:48:58.526Z,236
2023-01-15T07:49:58.500Z,208
2023-01-15T07:50:58.508Z,232
2023-01-15T07:51:58.259Z,272
2023-01-15T07:53:00.001Z,292
2023-01-15T07:53:58.219Z,308
2023-01-15T07:54:58.436Z,324
2023-01-15T07:55:58.501Z,328
2023-01-15T07:56:58.131Z,360
2023-01-15T07:57:58.124Z,308
2023-01-15T07:58:58.116Z,288
2023-01-15T07:59:57.849Z,320
2023-01-15T08:00:58.304Z,312
2023-01-15T08:01:58.625Z,296
2023-01-15T08:02:58.430Z,324
2023-01-15T08:03:58.539Z,356
2023-01-15T08:04:57.765Z,380
2023-01-15T08:05:59.867Z,364
2023-01-15T08:06:57.973Z,364
2023-01-15T08:07:57.739Z,340
2023-01-15T08:08:57.753Z,332
2023-01-15T08:09:57.453Z,348
2023-01-15T08:10:57.914Z,356
2023-01-15T08:11:57.904Z,356
2023-01-15T08:13:00.328Z,336
2023-01-15T08:13:58.144Z,384
2023-01-15T08:14:57.615Z,420
2023-01-15T08:15:57.832Z,424
2023-01-15T08:16:57.814Z,392
2023-01-15T08:17:57.594Z,400
2023-01-15T08:18:57.516Z,420
2023-01-15T08:19:57.763Z,452
2023-01-15T08:20:58.001Z,456
2023-01-15T08:21:57.755Z,476
2023-01-15T08:22:58.020Z,468
2023-01-15T08:23:57.963Z,464
2023-01-15T08:24:57.703Z,420
2023-01-15T08:25:57.448Z,440
2023-01-15T08:26:57.420Z,436
2023-01-15T08:27:57.640Z,412
2023-01-15T08:28:57.625Z,408
2023-01-15T08:29:57.582Z,476
2023-01-15T08:30:57.618Z,516
2023-01-15T08:31:58.003Z,460
2023-01-15T08:32:57.665Z,460
2023-01-15T08:33:57.535Z,560
2023-01-15T08:34:57.794Z,572
2023-01-15T08:35:57.303Z,604
2023-01-15T08:36:57.751Z,620
2023-01-15T08:37:57.515Z,628
2023-01-15T08:38:57.467Z,640
2023-01-15T08:39:57.426Z,636
2023-01-15T08:40:57.433Z,624
2023-01-15T08:41:57.414Z,600
2023-01-15T08:42:59.160Z,608
2023-01-15T08:43:57.374Z,608
2023-01-15T08:44:57.618Z,660
2023-01-15T08:45:57.626Z,664
2023-01-15T08:46:57.071Z,680
2023-01-15T08:47:57.292Z,676
2023-01-15T08:48:57.020Z,644
2023-01-15T08:49:57.290Z,624
2023-01-15T08:50:57.541Z,696
2023-01-15T08:51:57.211Z,684
2023-01-15T08:52:57.201Z,704
2023-01-15T08:53:57.219Z,808
2023-01-15T08:54:57.483Z,844
2023-01-15T08:55:57.191Z,928
2023-01-15T08:56:57.501Z,984
2023-01-15T08:57:57.326Z,936
2023-01-15T08:58:57.271Z,896
2023-01-15T08:59:57.559Z,816
2023-01-15T09:00:57.848Z,796
2023-01-15T09:01:58.211Z,844
2023-01-15T09:02:57.738Z,780
2023-01-15T09:03:57.290Z,768
2023-01-15T09:04:57.753Z,832
2023-01-15T09:05:57.471Z,856
2023-01-15T09:06:56.938Z,900
2023-01-15T09:07:56.930Z,956
2023-01-15T09:08:57.370Z,908
2023-01-15T09:09:57.473Z,968
2023-01-15T09:10:57.111Z,1040
2023-01-15T09:11:57.409Z,1080
2023-01-15T09:12:56.844Z,1020
2023-01-15T09:13:57.413Z,900
2023-01-15T09:15:08.382Z,944
2023-01-15T09:15:57.260Z,1196
2023-01-15T09:16:57.044Z,1200
2023-01-15T09:17:56.995Z,1172
2023-01-15T09:18:56.679Z,1240
2023-01-15T09:19:56.971Z,1356
2023-01-15T09:20:57.178Z,1408
2023-01-15T09:21:56.979Z,1032
2023-01-15T09:22:56.876Z,1216
2023-01-15T09:23:56.399Z,1204
2023-01-15T09:24:56.852Z,1000
2023-01-15T09:26:00.155Z,1144
2023-01-15T09:26:56.831Z,1068
2023-01-15T09:27:57.043Z,1164
2023-01-15T09:28:57.056Z,1348
2023-01-15T09:29:56.791Z,1644
2023-01-15T09:30:56.984Z,1652
2023-01-15T09:31:56.988Z,1540
2023-01-15T09:32:57.049Z,1564
2023-01-15T09:33:57.288Z,1772
2023-01-15T09:34:57.608Z,1652
2023-01-15T09:35:57.539Z,1784
2023-01-15T09:36:57.267Z,1764
2023-01-15T09:37:57.513Z,1568
2023-01-15T09:38:57.462Z,1336
2023-01-15T09:39:57.436Z,1348
2023-01-15T09:40:57.467Z,1472
2023-01-15T09:41:59.916Z,1736
2023-01-15T09:42:57.438Z,1696
2023-01-15T09:43:58.357Z,1904
2023-01-15T09:44:57.090Z,2124
2023-01-15T09:45:57.266Z,2188
2023-01-15T09:46:57.049Z,2076
2023-01-15T09:47:56.813Z,1940
2023-01-15T09:48:57.334Z,2228
2023-01-15T09:49:57.299Z,2312
2023-01-15T09:50:56.824Z,2276
2023-01-15T09:51:56.757Z,1968
2023-01-15T09:52:56.974Z,1912
2023-01-15T09:53:57.065Z,1824
2023-01-15T09:54:56.923Z,2216
2023-01-15T09:55:56.713Z,2440
2023-01-15T09:56:56.917Z,2428
2023-01-15T09:57:56.883Z,2196
2023-01-15T09:58:56.946Z,2432
2023-01-15T09:59:56.881Z,2508
2023-01-15T10:00:56.610Z,2228
2023-01-15T10:01:56.613Z,1968
2023-01-15T10:02:57.145Z,1972
2023-01-15T10:03:56.971Z,1680
2023-01-15T10:04:56.292Z,1568
2023-01-15T10:05:56.754Z,1852
2023-01-15T10:06:56.752Z,1996
2023-01-15T10:07:56.715Z,2328
2023-01-15T10:08:56.681Z,1796
2023-01-15T10:09:56.677Z,1960
2023-01-15T10:10:56.634Z,2728
2023-01-15T10:11:56.926Z,2404
2023-01-15T10:12:56.373Z,2812
2023-01-15T10:13:56.675Z,3088
2023-01-15T10:14:56.825Z,2580
2023-01-15T10:15:59.346Z,2468
2023-01-15T10:16:56.543Z,2476
2023-01-15T10:17:56.531Z,2744
2023-01-15T10:18:56.533Z,2748
2023-01-15T10:19:56.284Z,2752
2023-01-15T10:20:56.781Z,2724
2023-01-15T10:21:56.748Z,3252
2023-01-15T10:22:58.236Z,3292
2023-01-15T10:23:56.455Z,2712
2023-01-15T10:24:56.537Z,2812
2023-01-15T10:25:56.406Z,2568
2023-01-15T10:26:56.385Z,2504
2023-01-15T10:27:56.616Z,2284
2023-01-15T10:28:56.594Z,2604
2023-01-15T10:29:56.383Z,2472
2023-01-15T10:30:56.751Z,2524
2023-01-15T10:31:56.602Z,2420
2023-01-15T10:33:08.618Z,2516
2023-01-15T10:33:56.493Z,2536
2023-01-15T10:34:56.011Z,2264
2023-01-15T10:35:55.987Z,2020
2023-01-15T10:36:56.512Z,1852
2023-01-15T10:37:56.604Z,1928
2023-01-15T10:38:56.616Z,1928
2023-01-15T10:39:56.103Z,1972
2023-01-15T10:40:56.563Z,2184
2023-01-15T10:41:56.602Z,2520
2023-01-15T10:42:56.550Z,2676
2023-01-15T10:43:56.235Z,2796
2023-01-15T10:44:56.455Z,2888
2023-01-15T10:45:56.710Z,3072
2023-01-15T10:47:00.723Z,3256
2023-01-15T10:47:55.942Z,3268
2023-01-15T10:48:56.142Z,2932
2023-01-15T10:49:56.119Z,2932
2023-01-15T10:50:56.122Z,2612
2023-01-15T10:51:56.188Z,2728
2023-01-15T10:52:56.072Z,3088
2023-01-15T10:53:56.054Z,2964
2023-01-15T10:54:56.295Z,2940
2023-01-15T10:55:56.282Z,2832
2023-01-15T10:56:56.256Z,2608
2023-01-15T10:58:14.151Z,2704
2023-01-15T10:58:55.972Z,2916
2023-01-15T10:59:56.580Z,3212
2023-01-15T11:00:57.211Z,3384
2023-01-15T11:01:57.331Z,3352
2023-01-15T11:02:56.937Z,3120
2023-01-15T11:03:57.254Z,2868
2023-01-15T11:04:56.994Z,3228
2023-01-15T11:05:57.012Z,3196
2023-01-15T11:06:56.471Z,3440
2023-01-15T11:09:14.295Z,3080
2023-01-15T11:09:23.874Z,3084
2023-01-15T11:10:23.999Z,3088
2023-01-15T11:11:24.160Z,3376
2023-01-15T11:12:24.400Z,3148
2023-01-15T11:13:24.378Z,3020
2023-01-15T11:14:24.082Z,3260
2023-01-15T11:15:24.066Z,3480
2023-01-15T11:16:24.060Z,3632
2023-01-15T11:17:24.293Z,3540
2023-01-15T11:18:24.037Z,3768
2023-01-15T11:19:25.544Z,3684
2023-01-15T11:20:24.038Z,3600
2023-01-15T11:21:23.703Z,3644
2023-01-15T11:22:24.197Z,3552
2023-01-15T11:23:23.969Z,3728
2023-01-15T11:24:23.967Z,3820
2023-01-15T11:25:24.173Z,3900
2023-01-15T11:26:23.886Z,3960
2023-01-15T11:27:24.117Z,3956
2023-01-15T11:28:26.156Z,3960
2023-01-15T11:29:23.821Z,3952
2023-01-15T11:30:23.804Z,3988
2023-01-15T11:31:23.938Z,3920
2023-01-15T11:32:24.538Z,3856
2023-01-15T11:33:24.802Z,3860
2023-01-15T11:34:26.591Z,3828
2023-01-15T11:35:24.490Z,3888
2023-01-15T11:36:24.200Z,3968
2023-01-15T11:37:24.704Z,3960
2023-01-15T11:38:24.178Z,4096
2023-01-15T11:39:24.408Z,4144
2023-01-15T11:40:24.651Z,4156
2023-01-15T11:41:24.381Z,4132
2023-01-15T11:42:24.393Z,3968
2023-01-15T11:43:24.626Z,3780
2023-01-15T11:44:24.310Z,3772
2023-01-15T11:45:24.309Z,3712
2023-01-15T11:46:24.798Z,3660
2023-01-15T11:47:24.298Z,3660
2023-01-15T11:48:24.515Z,3684
2023-01-15T11:49:24.500Z,3684
2023-01-15T11:50:24.505Z,3668
2023-01-15T11:51:24.249Z,3720
2023-01-15T11:52:24.467Z,3944
2023-01-15T11:53:25.602Z,4244
2023-01-15T11:54:23.901Z,4408
2023-01-15T11:55:24.135Z,4632
2023-01-15T11:56:24.131Z,4784
2023-01-15T11:57:24.380Z,4692
2023-01-15T11:58:24.353Z,4532
2023-01-15T11:59:24.428Z,4376
2023-01-15T12:00:24.324Z,4296
2023-01-15T12:01:24.684Z,4324
2023-01-15T12:02:24.266Z,4460
2023-01-15T12:03:24.521Z,4656
2023-01-15T12:04:24.871Z,4860
2023-01-15T12:05:23.976Z,5020
2023-01-15T12:06:23.944Z,5044
2023-01-15T12:07:23.925Z,4896
2023-01-15T12:08:23.916Z,4728
2023-01-15T12:09:24.205Z,4596
2023-01-15T12:10:24.219Z,4464
2023-01-15T12:11:33.685Z,4396
2023-01-15T12:12:24.120Z,4400
2023-01-15T12:13:23.833Z,4428
2023-01-15T12:14:24.128Z,4464
2023-01-15T12:15:24.070Z,4444
2023-01-15T12:16:24.028Z,4364
2023-01-15T12:17:24.071Z,4268
2023-01-15T12:18:23.532Z,4232
2023-01-15T12:19:23.786Z,4240
2023-01-15T12:20:23.811Z,4300
2023-01-15T12:21:23.987Z,4380
2023-01-15T12:22:23.729Z,4388
2023-01-15T12:23:23.949Z,4264
2023-01-15T12:24:23.641Z,4092
2023-01-15T12:25:23.885Z,3908
2023-01-15T12:26:23.874Z,3712
2023-01-15T12:27:23.147Z,3704
2023-01-15T12:28:23.338Z,3612
2023-01-15T12:29:23.332Z,3420
2023-01-15T12:30:23.303Z,2880
2023-01-15T12:31:24.122Z,2592
2023-01-15T12:32:23.279Z,2668
2023-01-15T12:33:23.811Z,2364
2023-01-15T12:34:23.799Z,2720
2023-01-15T12:35:23.765Z,2456
2023-01-15T12:36:23.208Z,2424
2023-01-15T12:37:23.875Z,1848
2023-01-15T12:38:23.727Z,2160
2023-01-15T12:39:23.415Z,2336
2023-01-15T12:40:23.674Z,2228
2023-01-15T12:41:23.384Z,1904
2023-01-15T12:42:23.611Z,2284
2023-01-15T12:43:23.348Z,2700
2023-01-15T12:44:23.621Z,3168
2023-01-15T12:45:23.610Z,2740
2023-01-15T12:46:23.839Z,2704
2023-01-15T12:47:23.521Z,3104
2023-01-15T12:48:23.275Z,3176
2023-01-15T12:49:23.307Z,2952
2023-01-15T12:50:22.745Z,2772
2023-01-15T12:51:25.397Z,2756
2023-01-15T12:52:22.932Z,2916
2023-01-15T12:53:23.196Z,2692
2023-01-15T12:54:23.155Z,2624
2023-01-15T12:55:23.402Z,3056
2023-01-15T12:56:23.413Z,3320
2023-01-15T12:57:23.392Z,2736
2023-01-15T12:58:23.089Z,2400
2023-01-15T12:59:24.014Z,2368
2023-01-15T13:00:24.278Z,2632
2023-01-15T13:01:24.793Z,2292
2023-01-15T13:02:24.413Z,2116
2023-01-15T13:03:23.954Z,2320
2023-01-15T13:04:23.872Z,2364
2023-01-15T13:05:23.993Z,2092
2023-01-15T13:06:23.353Z,1788
2023-01-15T13:07:24.107Z,1924
2023-01-15T13:08:24.097Z,2364
2023-01-15T13:09:25.642Z,2272
2023-01-15T13:10:24.081Z,2416
2023-01-15T13:11:23.785Z,2476
2023-01-15T13:12:23.979Z,2224
2023-01-15T13:13:23.981Z,1816
2023-01-15T13:14:23.946Z,1836
2023-01-15T13:15:23.976Z,1880
2023-01-15T13:16:24.329Z,2032
2023-01-15T13:17:23.683Z,1928
2023-01-15T13:18:23.665Z,2028
2023-01-15T13:19:23.651Z,2068
2023-01-15T13:20:23.856Z,2032
2023-01-15T13:21:23.599Z,2208
2023-01-15T13:22:23.644Z,2292
2023-01-15T13:23:23.880Z,2472
2023-01-15T13:24:23.561Z,2600
2023-01-15T13:25:25.666Z,2772
2023-01-15T13:26:23.761Z,2772
2023-01-15T13:27:23.510Z,2736
2023-01-15T13:28:23.480Z,2724
2023-01-15T13:29:23.500Z,2768
2023-01-15T13:30:23.716Z,2780
2023-01-15T13:31:23.272Z,2828
2023-01-15T13:32:23.438Z,2780
2023-01-15T13:33:23.184Z,2616
2023-01-15T13:34:23.652Z,2380
2023-01-15T13:35:23.372Z,2184
2023-01-15T13:36:23.456Z,2112
2023-01-15T13:37:23.086Z,2092
2023-01-15T13:38:23.301Z,2032
2023-01-15T13:39:23.321Z,1960
2023-01-15T13:40:23.551Z,1816
2023-01-15T13:41:23.293Z,1840
2023-01-15T13:42:23.268Z,1916
2023-01-15T13:43:23.816Z,1972
2023-01-15T13:44:24.087Z,2072
2023-01-15T13:45:23.605Z,2152
2023-01-15T13:46:23.769Z,2224
2023-01-15T13:47:24.045Z,2444
2023-01-15T13:48:24.249Z,2624
2023-01-15T13:49:24.311Z,2460
2023-01-15T13:50:24.206Z,2064
2023-01-15T13:51:23.936Z,1920
2023-01-15T13:52:24.176Z,2132
2023-01-15T13:53:23.920Z,2804
2023-01-15T13:54:24.160Z,3608
2023-01-15T13:55:23.889Z,3228
2023-01-15T13:56:23.866Z,2348
2023-01-15T13:57:23.605Z,1788
2023-01-15T13:58:24.082Z,1516
2023-01-15T13:59:23.823Z,1304
2023-01-15T14:00:24.044Z,1160
2023-01-15T14:01:24.754Z,1212
2023-01-15T14:02:23.994Z,1432
2023-01-15T14:03:23.941Z,1544
2023-01-15T14:04:23.982Z,1560
2023-01-15T14:05:23.699Z,1628
2023-01-15T14:06:23.705Z,1552
2023-01-15T14:07:23.934Z,1352
2023-01-15T14:08:23.908Z,1156
2023-01-15T14:09:23.662Z,1060
2023-01-15T14:10:23.387Z,1156
2023-01-15T14:11:23.353Z,1528
2023-01-15T14:12:23.586Z,1936
2023-01-15T14:13:23.876Z,1796
2023-01-15T14:14:23.806Z,1392
2023-01-15T14:15:23.271Z,1052
2023-01-15T14:16:23.949Z,884
2023-01-15T14:17:23.742Z,864
2023-01-15T14:18:23.752Z,864
2023-01-15T14:19:23.457Z,976
2023-01-15T14:20:23.440Z,1280